sensor_id;sensor_type;location;lat;lon;timestamp;temperature;humidity
19728;DHT22;10015;52.530;13.390;2022-08-21T00:01:47;22.80;99.90
19728;DHT22;10015;52.530;13.390;2022-08-21T00:04:14;22.70;99.90
19728;DHT22;10015;52.530;13.390;2022-08-21T00:06:40;22.70;99.90
19728;DHT22;10015;52.530;13.390;2022-08-21T00:09:08;22.70;99.90
19728;DHT22;10015;52.530;13.390;2022-08-21T00:11:35;22.70;99.90
19728;DHT22;10015;52.530;13.390;2022-08-21T00:14:02;22.70;99.90
19728;DHT22;10015;52.530;13.390;2022-08-21T00:16:28;22.70;99.90
19728;DHT22;10015;52.530;13.390;2022-08-21T00:18:54;22.70;99.90
19728;DHT22;10015;52.530;13.390;2022-08-21T00:21:19;22.70;99.90
19728;DHT22;10015;52.530;13.390;2022-08-21T00:23:45;22.60;99.90
19728;DHT22;10015;52.530;13.390;2022-08-21T00:26:11;22.60;99.90
19728;DHT22;10015;52.530;13.390;2022-08-21T00:28:37;22.60;99.90
19728;DHT22;10015;52.530;13.390;2022-08-21T00:31:03;22.60;99.90
19728;DHT22;10015;52.530;13.390;2022-08-21T00:33:30;22.50;99.90
19728;DHT22;10015;52.530;13.390;2022-08-21T00:35:56;22.50;99.90
19728;DHT22;10015;52.530;13.390;2022-08-21T00:38:22;22.60;99.90
19728;DHT22;10015;52.530;13.390;2022-08-21T00:40:52;22.60;99.90
19728;DHT22;10015;52.530;13.390;2022-08-21T00:43:26;22.50;99.90
19728;DHT22;10015;52.530;13.390;2022-08-21T00:45:54;22.50;99.90
19728;DHT22;10015;52.530;13.390;2022-08-21T00:48:21;22.50;99.90
19728;DHT22;10015;52.530;13.390;2022-08-21T00:51:01;22.60;99.90
19728;DHT22;10015;52.530;13.390;2022-08-21T00:53:29;22.50;99.90
19728;DHT22;10015;52.530;13.390;2022-08-21T00:55:57;22.60;99.90
19728;DHT22;10015;52.530;13.390;2022-08-21T00:58:26;22.60;99.90
19728;DHT22;10015;52.530;13.390;2022-08-21T01:00:53;22.50;99.90
19728;DHT22;10015;52.530;13.390;2022-08-21T01:03:21;22.50;99.90
19728;DHT22;10015;52.530;13.390;2022-08-21T01:05:48;22.60;99.90
19728;DHT22;10015;52.530;13.390;2022-08-21T01:08:16;22.50;99.90
19728;DHT22;10015;52.530;13.390;2022-08-21T01:10:43;22.50;99.90
19728;DHT22;10015;52.530;13.390;2022-08-21T01:13:10;22.50;99.90
19728;DHT22;10015;52.530;13.390;2022-08-21T01:15:40;22.50;99.90
19728;DHT22;10015;52.530;13.390;2022-08-21T01:18:10;22.50;99.90
19728;DHT22;10015;52.530;13.390;2022-08-21T01:20:41;22.50;99.90
19728;DHT22;10015;52.530;13.390;2022-08-21T01:23:07;22.40;99.90
19728;DHT22;10015;52.530;13.390;2022-08-21T01:25:34;22.30;99.90
19728;DHT22;10015;52.530;13.390;2022-08-21T01:28:06;22.30;99.90
19728;DHT22;10015;52.530;13.390;2022-08-21T01:30:35;22.30;99.90
19728;DHT22;10015;52.530;13.390;2022-08-21T01:33:02;22.30;99.90
19728;DHT22;10015;52.530;13.390;2022-08-21T01:35:28;22.20;99.90
19728;DHT22;10015;52.530;13.390;2022-08-21T01:37:54;22.20;99.90
19728;DHT22;10015;52.530;13.390;2022-08-21T01:40:20;22.20;99.90
19728;DHT22;10015;52.530;13.390;2022-08-21T01:42:47;22.20;99.90
19728;DHT22;10015;52.530;13.390;2022-08-21T01:45:15;22.20;99.90
19728;DHT22;10015;52.530;13.390;2022-08-21T01:47:43;22.10;99.90
19728;DHT22;10015;52.530;13.390;2022-08-21T01:50:13;22.10;99.90
19728;DHT22;10015;52.530;13.390;2022-08-21T01:52:39;22.10;99.90
19728;DHT22;10015;52.530;13.390;2022-08-21T01:55:10;22.10;99.90
19728;DHT22;10015;52.530;13.390;2022-08-21T01:57:36;22.10;99.90
19728;DHT22;10015;52.530;13.390;2022-08-21T02:00:06;22.00;99.90
19728;DHT22;10015;52.530;13.390;2022-08-21T02:02:38;21.90;99.90
19728;DHT22;10015;52.530;13.390;2022-08-21T02:05:05;22.00;99.90
19728;DHT22;10015;52.530;13.390;2022-08-21T02:08:10;21.90;99.90
19728;DHT22;10015;52.530;13.390;2022-08-21T02:10:31;22.00;99.90
19728;DHT22;10015;52.530;13.390;2022-08-21T02:12:58;21.90;99.90
19728;DHT22;10015;52.530;13.390;2022-08-21T02:15:28;21.90;99.90
19728;DHT22;10015;52.530;13.390;2022-08-21T02:17:57;21.90;99.90
19728;DHT22;10015;52.530;13.390;2022-08-21T02:22:51;21.80;99.90
19728;DHT22;10015;52.530;13.390;2022-08-21T02:25:22;21.80;99.90
19728;DHT22;10015;52.530;13.390;2022-08-21T02:27:48;21.80;99.90
19728;DHT22;10015;52.530;13.390;2022-08-21T02:30:20;21.70;99.90
19728;DHT22;10015;52.530;13.390;2022-08-21T02:32:46;21.80;99.90
19728;DHT22;10015;52.530;13.390;2022-08-21T02:35:12;21.80;99.90
19728;DHT22;10015;52.530;13.390;2022-08-21T02:37:52;21.80;99.90
19728;DHT22;10015;52.530;13.390;2022-08-21T02:40:21;21.80;99.90
19728;DHT22;10015;52.530;13.390;2022-08-21T02:42:48;21.80;99.90
19728;DHT22;10015;52.530;13.390;2022-08-21T02:45:15;21.70;99.90
19728;DHT22;10015;52.530;13.390;2022-08-21T02:47:50;21.70;99.90
19728;DHT22;10015;52.530;13.390;2022-08-21T02:50:24;21.70;99.90
19728;DHT22;10015;52.530;13.390;2022-08-21T02:52:50;21.70;99.90
19728;DHT22;10015;52.530;13.390;2022-08-21T02:55:23;21.60;99.90
19728;DHT22;10015;52.530;13.390;2022-08-21T02:57:49;21.60;99.90
19728;DHT22;10015;52.530;13.390;2022-08-21T03:00:16;21.60;99.90
19728;DHT22;10015;52.530;13.390;2022-08-21T03:02:42;21.50;99.90
19728;DHT22;10015;52.530;13.390;2022-08-21T03:05:09;21.50;99.90
19728;DHT22;10015;52.530;13.390;2022-08-21T03:07:37;21.50;99.90
19728;DHT22;10015;52.530;13.390;2022-08-21T03:10:04;21.50;99.90
19728;DHT22;10015;52.530;13.390;2022-08-21T03:12:30;21.50;99.90
19728;DHT22;10015;52.530;13.390;2022-08-21T03:14:57;21.50;99.90
19728;DHT22;10015;52.530;13.390;2022-08-21T03:17:24;21.50;99.90
19728;DHT22;10015;52.530;13.390;2022-08-21T03:19:50;21.50;99.90
19728;DHT22;10015;52.530;13.390;2022-08-21T03:22:16;21.40;99.90
19728;DHT22;10015;52.530;13.390;2022-08-21T03:24:43;21.40;99.90
19728;DHT22;10015;52.530;13.390;2022-08-21T03:27:11;21.40;99.90
19728;DHT22;10015;52.530;13.390;2022-08-21T03:29:39;21.30;99.90
19728;DHT22;10015;52.530;13.390;2022-08-21T03:32:05;21.40;99.90
19728;DHT22;10015;52.530;13.390;2022-08-21T03:34:35;21.30;99.90
19728;DHT22;10015;52.530;13.390;2022-08-21T03:37:02;21.30;99.90
19728;DHT22;10015;52.530;13.390;2022-08-21T03:39:29;21.30;99.90
19728;DHT22;10015;52.530;13.390;2022-08-21T03:41:55;21.30;99.90
19728;DHT22;10015;52.530;13.390;2022-08-21T03:44:21;21.30;99.90
19728;DHT22;10015;52.530;13.390;2022-08-21T03:46:47;21.30;99.90
19728;DHT22;10015;52.530;13.390;2022-08-21T03:49:13;21.20;99.90
19728;DHT22;10015;52.530;13.390;2022-08-21T03:51:39;21.20;99.90
19728;DHT22;10015;52.530;13.390;2022-08-21T03:54:04;21.10;99.90
19728;DHT22;10015;52.530;13.390;2022-08-21T03:56:31;21.20;99.90
19728;DHT22;10015;52.530;13.390;2022-08-21T03:58:57;21.20;99.90
19728;DHT22;10015;52.530;13.390;2022-08-21T04:01:23;21.20;99.90
19728;DHT22;10015;52.530;13.390;2022-08-21T04:03:51;21.10;99.90
19728;DHT22;10015;52.530;13.390;2022-08-21T04:06:18;21.10;99.90
19728;DHT22;10015;52.530;13.390;2022-08-21T04:08:43;21.10;99.90
19728;DHT22;10015;52.530;13.390;2022-08-21T04:11:09;21.10;99.90
19728;DHT22;10015;52.530;13.390;2022-08-21T04:13:38;21.10;99.90
19728;DHT22;10015;52.530;13.390;2022-08-21T04:16:06;21.10;99.90
19728;DHT22;10015;52.530;13.390;2022-08-21T04:18:32;21.10;99.90
19728;DHT22;10015;52.530;13.390;2022-08-21T04:20:59;21.10;99.90
19728;DHT22;10015;52.530;13.390;2022-08-21T04:23:26;21.10;99.90
19728;DHT22;10015;52.530;13.390;2022-08-21T04:25:52;21.10;99.90
19728;DHT22;10015;52.530;13.390;2022-08-21T04:28:21;21.10;99.90
19728;DHT22;10015;52.530;13.390;2022-08-21T04:30:47;21.10;99.90
19728;DHT22;10015;52.530;13.390;2022-08-21T04:33:13;21.10;99.90
19728;DHT22;10015;52.530;13.390;2022-08-21T04:35:39;21.00;99.90
19728;DHT22;10015;52.530;13.390;2022-08-21T04:38:05;21.00;99.90
19728;DHT22;10015;52.530;13.390;2022-08-21T04:40:31;21.00;99.90
19728;DHT22;10015;52.530;13.390;2022-08-21T04:43:02;21.00;99.90
19728;DHT22;10015;52.530;13.390;2022-08-21T04:45:35;21.00;99.90
19728;DHT22;10015;52.530;13.390;2022-08-21T04:48:03;21.10;99.90
19728;DHT22;10015;52.530;13.390;2022-08-21T04:53:20;21.10;99.90
19728;DHT22;10015;52.530;13.390;2022-08-21T04:55:48;21.10;99.90
19728;DHT22;10015;52.530;13.390;2022-08-21T04:58:17;21.10;99.90
19728;DHT22;10015;52.530;13.390;2022-08-21T05:00:44;21.10;99.90
19728;DHT22;10015;52.530;13.390;2022-08-21T05:03:11;21.10;99.90
19728;DHT22;10015;52.530;13.390;2022-08-21T05:05:38;21.10;99.90
19728;DHT22;10015;52.530;13.390;2022-08-21T05:08:07;21.10;99.90
19728;DHT22;10015;52.530;13.390;2022-08-21T05:10:33;21.10;99.90
19728;DHT22;10015;52.530;13.390;2022-08-21T05:13:00;21.10;99.90
19728;DHT22;10015;52.530;13.390;2022-08-21T05:15:26;21.20;99.90
19728;DHT22;10015;52.530;13.390;2022-08-21T05:17:52;21.20;99.90
19728;DHT22;10015;52.530;13.390;2022-08-21T05:20:19;21.20;99.90
19728;DHT22;10015;52.530;13.390;2022-08-21T05:22:45;21.20;99.90
19728;DHT22;10015;52.530;13.390;2022-08-21T05:25:11;21.20;99.90
19728;DHT22;10015;52.530;13.390;2022-08-21T05:27:38;21.20;99.90
19728;DHT22;10015;52.530;13.390;2022-08-21T05:30:08;21.20;99.90
19728;DHT22;10015;52.530;13.390;2022-08-21T05:32:35;21.20;99.90
19728;DHT22;10015;52.530;13.390;2022-08-21T05:35:06;21.10;99.90
19728;DHT22;10015;52.530;13.390;2022-08-21T05:37:33;21.10;99.90
19728;DHT22;10015;52.530;13.390;2022-08-21T05:40:00;21.20;99.90
19728;DHT22;10015;52.530;13.390;2022-08-21T05:42:26;21.20;99.90
19728;DHT22;10015;52.530;13.390;2022-08-21T05:44:53;21.10;99.90
19728;DHT22;10015;52.530;13.390;2022-08-21T05:47:19;21.10;99.90
19728;DHT22;10015;52.530;13.390;2022-08-21T05:49:45;21.10;99.90
19728;DHT22;10015;52.530;13.390;2022-08-21T05:52:11;21.10;99.90
19728;DHT22;10015;52.530;13.390;2022-08-21T05:54:37;21.10;99.90
19728;DHT22;10015;52.530;13.390;2022-08-21T05:57:03;21.10;99.90
19728;DHT22;10015;52.530;13.390;2022-08-21T05:59:29;21.10;99.90
19728;DHT22;10015;52.530;13.390;2022-08-21T06:01:55;21.10;99.90
19728;DHT22;10015;52.530;13.390;2022-08-21T06:04:21;21.20;99.90
19728;DHT22;10015;52.530;13.390;2022-08-21T06:06:46;21.30;99.90
19728;DHT22;10015;52.530;13.390;2022-08-21T06:09:13;21.30;99.90
19728;DHT22;10015;52.530;13.390;2022-08-21T06:11:39;21.40;99.90
19728;DHT22;10015;52.530;13.390;2022-08-21T06:14:05;21.40;99.90
19728;DHT22;10015;52.530;13.390;2022-08-21T06:16:32;21.30;99.90
19728;DHT22;10015;52.530;13.390;2022-08-21T06:18:58;21.30;99.90
19728;DHT22;10015;52.530;13.390;2022-08-21T06:21:24;21.40;99.90
19728;DHT22;10015;52.530;13.390;2022-08-21T06:23:50;21.40;99.90
19728;DHT22;10015;52.530;13.390;2022-08-21T06:26:16;21.40;99.90
19728;DHT22;10015;52.530;13.390;2022-08-21T06:28:42;21.30;99.90
19728;DHT22;10015;52.530;13.390;2022-08-21T06:31:18;21.30;99.90
19728;DHT22;10015;52.530;13.390;2022-08-21T06:33:45;21.30;99.90
19728;DHT22;10015;52.530;13.390;2022-08-21T06:36:12;21.30;99.90
19728;DHT22;10015;52.530;13.390;2022-08-21T06:38:43;21.30;99.90
19728;DHT22;10015;52.530;13.390;2022-08-21T06:41:09;21.40;99.90
19728;DHT22;10015;52.530;13.390;2022-08-21T06:43:35;21.40;99.90
19728;DHT22;10015;52.530;13.390;2022-08-21T06:46:01;21.40;99.90
19728;DHT22;10015;52.530;13.390;2022-08-21T06:48:27;21.40;99.90
19728;DHT22;10015;52.530;13.390;2022-08-21T06:50:52;21.40;99.90
19728;DHT22;10015;52.530;13.390;2022-08-21T06:53:20;21.40;99.90
19728;DHT22;10015;52.530;13.390;2022-08-21T06:55:47;21.50;99.90
19728;DHT22;10015;52.530;13.390;2022-08-21T06:58:13;21.40;99.90
19728;DHT22;10015;52.530;13.390;2022-08-21T07:00:42;21.50;99.90
19728;DHT22;10015;52.530;13.390;2022-08-21T07:05:45;21.70;99.90
19728;DHT22;10015;52.530;13.390;2022-08-21T07:08:11;21.80;99.90
19728;DHT22;10015;52.530;13.390;2022-08-21T07:10:36;21.90;99.90
19728;DHT22;10015;52.530;13.390;2022-08-21T07:13:02;22.10;99.90
19728;DHT22;10015;52.530;13.390;2022-08-21T07:15:29;22.20;99.90
19728;DHT22;10015;52.530;13.390;2022-08-21T07:17:55;22.30;99.90
19728;DHT22;10015;52.530;13.390;2022-08-21T07:20:21;22.40;99.90
19728;DHT22;10015;52.530;13.390;2022-08-21T07:22:47;22.50;99.90
19728;DHT22;10015;52.530;13.390;2022-08-21T07:25:13;22.70;99.90
19728;DHT22;10015;52.530;13.390;2022-08-21T07:27:39;22.70;99.90
19728;DHT22;10015;52.530;13.390;2022-08-21T07:30:06;22.80;99.90
19728;DHT22;10015;52.530;13.390;2022-08-21T07:32:32;22.90;99.90
19728;DHT22;10015;52.530;13.390;2022-08-21T07:34:58;23.00;99.90
19728;DHT22;10015;52.530;13.390;2022-08-21T07:37:24;23.00;99.90
19728;DHT22;10015;52.530;13.390;2022-08-21T07:39:50;23.20;99.90
19728;DHT22;10015;52.530;13.390;2022-08-21T07:42:17;23.20;99.90
19728;DHT22;10015;52.530;13.390;2022-08-21T07:44:43;23.20;99.90
19728;DHT22;10015;52.530;13.390;2022-08-21T07:47:09;23.30;99.90
19728;DHT22;10015;52.530;13.390;2022-08-21T07:49:35;23.40;99.90
19728;DHT22;10015;52.530;13.390;2022-08-21T07:52:01;23.30;99.90
19728;DHT22;10015;52.530;13.390;2022-08-21T07:54:27;23.30;99.90
19728;DHT22;10015;52.530;13.390;2022-08-21T07:56:53;23.10;99.90
19728;DHT22;10015;52.530;13.390;2022-08-21T07:59:19;23.20;99.90
19728;DHT22;10015;52.530;13.390;2022-08-21T08:01:46;23.40;99.90
19728;DHT22;10015;52.530;13.390;2022-08-21T08:04:12;23.50;99.90
19728;DHT22;10015;52.530;13.390;2022-08-21T08:06:40;23.70;99.90
19728;DHT22;10015;52.530;13.390;2022-08-21T08:09:06;23.80;99.90
19728;DHT22;10015;52.530;13.390;2022-08-21T08:11:32;24.00;99.90
19728;DHT22;10015;52.530;13.390;2022-08-21T08:13:59;24.10;99.90
19728;DHT22;10015;52.530;13.390;2022-08-21T08:16:26;24.10;99.90
19728;DHT22;10015;52.530;13.390;2022-08-21T08:18:52;24.00;99.90
19728;DHT22;10015;52.530;13.390;2022-08-21T08:21:19;24.00;99.90
19728;DHT22;10015;52.530;13.390;2022-08-21T08:23:46;24.00;99.90
19728;DHT22;10015;52.530;13.390;2022-08-21T08:26:13;24.10;99.90
19728;DHT22;10015;52.530;13.390;2022-08-21T08:28:39;24.30;99.90
19728;DHT22;10015;52.530;13.390;2022-08-21T08:31:05;24.40;99.90
19728;DHT22;10015;52.530;13.390;2022-08-21T08:33:31;24.50;99.90
19728;DHT22;10015;52.530;13.390;2022-08-21T08:35:57;24.80;99.90
19728;DHT22;10015;52.530;13.390;2022-08-21T08:38:24;25.00;99.90
19728;DHT22;10015;52.530;13.390;2022-08-21T08:41:14;25.30;99.90
19728;DHT22;10015;52.530;13.390;2022-08-21T08:43:44;24.90;99.90
19728;DHT22;10015;52.530;13.390;2022-08-21T08:46:15;24.60;99.90
19728;DHT22;10015;52.530;13.390;2022-08-21T08:48:58;24.60;99.90
19728;DHT22;10015;52.530;13.390;2022-08-21T08:51:51;24.70;99.90
19728;DHT22;10015;52.530;13.390;2022-08-21T08:54:28;24.80;99.90
19728;DHT22;10015;52.530;13.390;2022-08-21T08:57:02;24.90;99.90
19728;DHT22;10015;52.530;13.390;2022-08-21T08:59:41;24.90;99.90
19728;DHT22;10015;52.530;13.390;2022-08-21T09:02:11;24.80;99.90
19728;DHT22;10015;52.530;13.390;2022-08-21T09:04:37;24.70;99.90
19728;DHT22;10015;52.530;13.390;2022-08-21T09:15:06;24.30;99.90
19728;DHT22;10015;52.530;13.390;2022-08-21T09:17:59;24.30;99.90
19728;DHT22;10015;52.530;13.390;2022-08-21T09:28:27;24.20;99.90
19728;DHT22;10015;52.530;13.390;2022-08-21T09:30:56;24.20;99.90
19728;DHT22;10015;52.530;13.390;2022-08-21T09:33:23;24.20;99.90
19728;DHT22;10015;52.530;13.390;2022-08-21T09:35:54;24.30;99.90
19728;DHT22;10015;52.530;13.390;2022-08-21T09:38:33;24.20;99.90
19728;DHT22;10015;52.530;13.390;2022-08-21T09:41:07;24.10;99.90
19728;DHT22;10015;52.530;13.390;2022-08-21T09:43:34;24.10;99.90
19728;DHT22;10015;52.530;13.390;2022-08-21T09:46:05;23.90;99.90
19728;DHT22;10015;52.530;13.390;2022-08-21T09:48:39;23.90;99.90
19728;DHT22;10015;52.530;13.390;2022-08-21T09:51:11;23.80;99.90
19728;DHT22;10015;52.530;13.390;2022-08-21T09:53:42;23.80;99.90
19728;DHT22;10015;52.530;13.390;2022-08-21T09:56:30;23.80;99.90
19728;DHT22;10015;52.530;13.390;2022-08-21T09:59:26;23.80;99.90
19728;DHT22;10015;52.530;13.390;2022-08-21T10:01:53;23.90;99.90
19728;DHT22;10015;52.530;13.390;2022-08-21T10:04:22;24.00;99.90
19728;DHT22;10015;52.530;13.390;2022-08-21T10:06:48;24.10;99.90
19728;DHT22;10015;52.530;13.390;2022-08-21T10:09:17;24.10;99.90
19728;DHT22;10015;52.530;13.390;2022-08-21T10:12:00;24.20;99.90
19728;DHT22;10015;52.530;13.390;2022-08-21T10:17:36;24.30;99.90
19728;DHT22;10015;52.530;13.390;2022-08-21T10:35:36;24.30;99.90
19728;DHT22;10015;52.530;13.390;2022-08-21T10:46:54;24.50;99.90
19728;DHT22;10015;52.530;13.390;2022-08-21T10:49:43;24.70;99.90
19728;DHT22;10015;52.530;13.390;2022-08-21T10:58:00;25.00;99.90
19728;DHT22;10015;52.530;13.390;2022-08-21T11:03:42;24.80;99.90
19728;DHT22;10015;52.530;13.390;2022-08-21T11:06:18;24.90;99.90
19728;DHT22;10015;52.530;13.390;2022-08-21T11:08:48;24.90;99.90
19728;DHT22;10015;52.530;13.390;2022-08-21T11:11:27;24.90;99.90
19728;DHT22;10015;52.530;13.390;2022-08-21T11:16:51;25.30;99.90
19728;DHT22;10015;52.530;13.390;2022-08-21T11:19:28;25.50;99.90
19728;DHT22;10015;52.530;13.390;2022-08-21T11:22:15;25.60;99.90
19728;DHT22;10015;52.530;13.390;2022-08-21T11:29:59;26.40;99.90
19728;DHT22;10015;52.530;13.390;2022-08-21T11:33:22;26.70;99.90
19728;DHT22;10015;52.530;13.390;2022-08-21T11:35:50;27.00;99.90
19728;DHT22;10015;52.530;13.390;2022-08-21T11:38:33;27.00;99.90
19728;DHT22;10015;52.530;13.390;2022-08-21T11:57:27;27.00;99.90
19728;DHT22;10015;52.530;13.390;2022-08-21T12:00:07;27.00;99.90
19728;DHT22;10015;52.530;13.390;2022-08-21T12:02:46;26.90;98.70
19728;DHT22;10015;52.530;13.390;2022-08-21T12:08:01;26.90;99.20
19728;DHT22;10015;52.530;13.390;2022-08-21T12:10:33;26.80;98.50
19728;DHT22;10015;52.530;13.390;2022-08-21T12:13:11;26.90;98.70
19728;DHT22;10015;52.530;13.390;2022-08-21T12:15:48;26.90;98.60
19728;DHT22;10015;52.530;13.390;2022-08-21T12:18:29;26.80;98.40
19728;DHT22;10015;52.530;13.390;2022-08-21T12:24:17;26.90;97.70
19728;DHT22;10015;52.530;13.390;2022-08-21T12:27:12;27.00;97.20
19728;DHT22;10015;52.530;13.390;2022-08-21T12:29:38;27.00;95.70
19728;DHT22;10015;52.530;13.390;2022-08-21T12:34:50;27.00;98.00
19728;DHT22;10015;52.530;13.390;2022-08-21T12:37:34;27.00;95.90
19728;DHT22;10015;52.530;13.390;2022-08-21T12:40:04;27.00;95.60
19728;DHT22;10015;52.530;13.390;2022-08-21T12:42:39;26.90;96.50
19728;DHT22;10015;52.530;13.390;2022-08-21T12:45:37;27.00;96.90
19728;DHT22;10015;52.530;13.390;2022-08-21T12:48:18;27.00;96.70
19728;DHT22;10015;52.530;13.390;2022-08-21T12:50:51;27.00;95.80
19728;DHT22;10015;52.530;13.390;2022-08-21T12:53:30;26.90;95.70
19728;DHT22;10015;52.530;13.390;2022-08-21T12:56:02;26.90;95.70
19728;DHT22;10015;52.530;13.390;2022-08-21T12:58:30;26.90;96.70
19728;DHT22;10015;52.530;13.390;2022-08-21T13:01:47;26.90;96.20
19728;DHT22;10015;52.530;13.390;2022-08-21T13:03:48;26.80;95.90
19728;DHT22;10015;52.530;13.390;2022-08-21T13:06:17;26.70;96.30
19728;DHT22;10015;52.530;13.390;2022-08-21T13:08:45;26.50;96.70
19728;DHT22;10015;52.530;13.390;2022-08-21T13:11:16;26.50;97.50
19728;DHT22;10015;52.530;13.390;2022-08-21T13:13:47;26.50;97.40
19728;DHT22;10015;52.530;13.390;2022-08-21T13:16:23;26.40;97.60
19728;DHT22;10015;52.530;13.390;2022-08-21T13:19:00;26.40;97.80
19728;DHT22;10015;52.530;13.390;2022-08-21T13:21:38;26.50;97.70
19728;DHT22;10015;52.530;13.390;2022-08-21T13:24:26;26.20;98.40
19728;DHT22;10015;52.530;13.390;2022-08-21T13:26:53;26.20;98.70
19728;DHT22;10015;52.530;13.390;2022-08-21T13:29:23;26.20;98.60
19728;DHT22;10015;52.530;13.390;2022-08-21T13:31:55;26.20;98.10
19728;DHT22;10015;52.530;13.390;2022-08-21T13:34:24;26.10;98.50
19728;DHT22;10015;52.530;13.390;2022-08-21T13:36:57;26.00;98.80
19728;DHT22;10015;52.530;13.390;2022-08-21T13:39:24;26.00;98.60
19728;DHT22;10015;52.530;13.390;2022-08-21T13:41:54;25.80;98.70
19728;DHT22;10015;52.530;13.390;2022-08-21T13:44:22;25.70;98.90
19728;DHT22;10015;52.530;13.390;2022-08-21T13:46:52;25.70;99.40
19728;DHT22;10015;52.530;13.390;2022-08-21T13:49:33;25.80;99.60
19728;DHT22;10015;52.530;13.390;2022-08-21T13:51:59;25.80;99.90
19728;DHT22;10015;52.530;13.390;2022-08-21T13:54:34;25.80;99.90
19728;DHT22;10015;52.530;13.390;2022-08-21T13:57:01;25.80;99.90
19728;DHT22;10015;52.530;13.390;2022-08-21T13:59:36;25.80;99.90
19728;DHT22;10015;52.530;13.390;2022-08-21T14:02:15;25.80;99.90
19728;DHT22;10015;52.530;13.390;2022-08-21T14:04:54;25.90;99.90
19728;DHT22;10015;52.530;13.390;2022-08-21T14:10:02;25.90;99.90
19728;DHT22;10015;52.530;13.390;2022-08-21T14:12:38;25.90;99.90
19728;DHT22;10015;52.530;13.390;2022-08-21T14:15:07;26.00;99.90
19728;DHT22;10015;52.530;13.390;2022-08-21T14:17:37;26.10;99.90
19728;DHT22;10015;52.530;13.390;2022-08-21T14:20:05;26.10;99.90
19728;DHT22;10015;52.530;13.390;2022-08-21T14:22:41;25.90;99.80
19728;DHT22;10015;52.530;13.390;2022-08-21T14:25:11;26.10;99.90
19728;DHT22;10015;52.530;13.390;2022-08-21T14:27:50;26.10;99.90
19728;DHT22;10015;52.530;13.390;2022-08-21T14:30:21;26.20;99.90
19728;DHT22;10015;52.530;13.390;2022-08-21T14:32:48;26.10;99.90
19728;DHT22;10015;52.530;13.390;2022-08-21T14:35:15;26.20;99.90
19728;DHT22;10015;52.530;13.390;2022-08-21T14:37:44;26.10;99.90
19728;DHT22;10015;52.530;13.390;2022-08-21T14:40:11;26.10;99.90
19728;DHT22;10015;52.530;13.390;2022-08-21T14:42:37;26.10;99.90
19728;DHT22;10015;52.530;13.390;2022-08-21T14:45:18;26.00;99.90
19728;DHT22;10015;52.530;13.390;2022-08-21T14:47:45;26.00;99.90
19728;DHT22;10015;52.530;13.390;2022-08-21T14:50:12;25.90;99.90
19728;DHT22;10015;52.530;13.390;2022-08-21T14:52:39;25.60;99.90
19728;DHT22;10015;52.530;13.390;2022-08-21T14:55:07;25.40;99.90
19728;DHT22;10015;52.530;13.390;2022-08-21T14:57:36;25.40;99.90
19728;DHT22;10015;52.530;13.390;2022-08-21T15:00:04;25.40;99.90
19728;DHT22;10015;52.530;13.390;2022-08-21T15:02:31;25.40;99.90
19728;DHT22;10015;52.530;13.390;2022-08-21T15:04:56;25.30;99.90
19728;DHT22;10015;52.530;13.390;2022-08-21T15:07:22;25.20;99.90
19728;DHT22;10015;52.530;13.390;2022-08-21T15:09:48;25.10;99.90
19728;DHT22;10015;52.530;13.390;2022-08-21T15:12:14;25.00;99.90
19728;DHT22;10015;52.530;13.390;2022-08-21T15:14:41;25.00;99.90
19728;DHT22;10015;52.530;13.390;2022-08-21T15:17:09;24.90;99.90
19728;DHT22;10015;52.530;13.390;2022-08-21T15:19:36;24.80;99.90
19728;DHT22;10015;52.530;13.390;2022-08-21T15:22:03;24.80;99.90
19728;DHT22;10015;52.530;13.390;2022-08-21T15:24:29;24.70;99.90
19728;DHT22;10015;52.530;13.390;2022-08-21T15:26:56;24.70;99.90
19728;DHT22;10015;52.530;13.390;2022-08-21T15:29:22;24.70;99.90
19728;DHT22;10015;52.530;13.390;2022-08-21T15:31:55;24.80;99.90
19728;DHT22;10015;52.530;13.390;2022-08-21T15:34:22;24.80;99.90
19728;DHT22;10015;52.530;13.390;2022-08-21T15:36:49;24.80;99.90
19728;DHT22;10015;52.530;13.390;2022-08-21T15:39:15;25.00;99.90
19728;DHT22;10015;52.530;13.390;2022-08-21T15:41:41;24.90;99.90
19728;DHT22;10015;52.530;13.390;2022-08-21T15:44:11;24.90;99.90
19728;DHT22;10015;52.530;13.390;2022-08-21T15:46:39;24.90;99.90
19728;DHT22;10015;52.530;13.390;2022-08-21T15:49:05;24.80;99.90
19728;DHT22;10015;52.530;13.390;2022-08-21T15:51:32;24.70;99.90
19728;DHT22;10015;52.530;13.390;2022-08-21T15:53:58;24.80;99.90
19728;DHT22;10015;52.530;13.390;2022-08-21T15:56:36;24.70;99.90
19728;DHT22;10015;52.530;13.390;2022-08-21T15:59:15;24.70;99.90
19728;DHT22;10015;52.530;13.390;2022-08-21T16:01:50;24.80;99.90
19728;DHT22;10015;52.530;13.390;2022-08-21T16:04:22;24.80;99.90
19728;DHT22;10015;52.530;13.390;2022-08-21T16:06:49;24.90;99.90
19728;DHT22;10015;52.530;13.390;2022-08-21T16:09:15;24.90;99.90
19728;DHT22;10015;52.530;13.390;2022-08-21T16:11:42;25.00;99.90
19728;DHT22;10015;52.530;13.390;2022-08-21T16:14:11;25.00;99.90
19728;DHT22;10015;52.530;13.390;2022-08-21T16:16:37;25.00;99.90
19728;DHT22;10015;52.530;13.390;2022-08-21T16:19:04;25.10;99.90
19728;DHT22;10015;52.530;13.390;2022-08-21T16:21:33;25.00;99.90
19728;DHT22;10015;52.530;13.390;2022-08-21T16:24:00;25.00;99.90
19728;DHT22;10015;52.530;13.390;2022-08-21T16:26:27;25.00;99.90
19728;DHT22;10015;52.530;13.390;2022-08-21T16:28:55;25.00;99.90
19728;DHT22;10015;52.530;13.390;2022-08-21T16:31:25;24.90;99.90
19728;DHT22;10015;52.530;13.390;2022-08-21T16:33:54;24.90;99.90
19728;DHT22;10015;52.530;13.390;2022-08-21T16:36:21;24.80;99.90
19728;DHT22;10015;52.530;13.390;2022-08-21T16:38:47;24.80;99.90
19728;DHT22;10015;52.530;13.390;2022-08-21T16:41:17;24.70;99.90
19728;DHT22;10015;52.530;13.390;2022-08-21T16:43:44;24.60;99.90
19728;DHT22;10015;52.530;13.390;2022-08-21T16:46:13;24.60;99.90
19728;DHT22;10015;52.530;13.390;2022-08-21T16:48:40;24.60;99.90
19728;DHT22;10015;52.530;13.390;2022-08-21T16:51:06;24.60;99.90
19728;DHT22;10015;52.530;13.390;2022-08-21T16:53:32;24.60;99.90
19728;DHT22;10015;52.530;13.390;2022-08-21T16:55:58;24.60;99.90
19728;DHT22;10015;52.530;13.390;2022-08-21T16:58:27;24.70;99.90
19728;DHT22;10015;52.530;13.390;2022-08-21T17:00:54;24.70;99.90
19728;DHT22;10015;52.530;13.390;2022-08-21T17:03:29;24.70;99.90
19728;DHT22;10015;52.530;13.390;2022-08-21T17:05:55;24.60;99.90